Time;durP1;ratioP1;P1;durP2;ratioP2;P2;SDS_P1;SDS_P2;PMS_P1;PMS_P2;Temp;Humidity;BMP_temperature;BMP_pressure;BME280_temperature;BME280_humidity;BME280_pressure;Samples;Min_cycle;Max_cycle;Signal;HPM_P1;HPM_P2
2021/05/30 00:00:49;;;;;;;16.35;13.40;;;10.50;92.40;;;;;;5006398;28;20045;-73
2021/05/30 00:03:16;;;;;;;22.98;13.90;;;10.50;92.50;;;;;;5001713;28;20045;-72
2021/05/30 00:05:43;;;;;;;22.60;14.63;;;10.50;92.50;;;;;;5037058;28;20037;-73
2021/05/30 00:08:09;;;;;;;21.10;13.88;;;10.50;92.60;;;;;;5038500;28;20040;-73
2021/05/30 00:10:35;;;;;;;21.85;13.15;;;10.50;92.60;;;;;;5018535;28;20033;-73
2021/05/30 00:13:01;;;;;;;21.45;13.02;;;10.50;92.60;;;;;;5028230;28;20038;-73
2021/05/30 00:15:31;;;;;;;19.75;13.05;;;10.40;92.60;;;;;;5025101;28;20506;-72
2021/05/30 00:17:57;;;;;;;19.10;13.40;;;10.50;92.70;;;;;;5033569;28;20083;-73
2021/05/30 00:20:23;;;;;;;21.00;12.73;;;10.50;92.70;;;;;;4993954;28;20120;-73
2021/05/30 00:22:48;;;;;;;22.60;13.07;;;10.50;92.80;;;;;;4992225;28;20125;-72
2021/05/30 00:25:14;;;;;;;23.33;13.77;;;10.40;92.70;;;;;;5002686;28;20037;-72
2021/05/30 00:27:40;;;;;;;22.15;14.02;;;10.40;92.80;;;;;;5008711;28;20040;-72
2021/05/30 00:30:07;;;;;;;22.73;13.85;;;10.50;92.80;;;;;;5020909;28;20083;-74
2021/05/30 00:32:33;;;;;;;20.02;12.95;;;10.40;92.80;;;;;;5011420;28;20412;-74
2021/05/30 00:34:59;;;;;;;20.13;14.82;;;10.40;92.70;;;;;;5005510;28;20035;-74
2021/05/30 00:37:28;;;;;;;22.33;13.77;;;10.50;92.60;;;;;;5006357;28;20088;-73
2021/05/30 00:39:54;;;;;;;20.52;14.00;;;10.40;92.60;;;;;;5011760;28;20065;-73
2021/05/30 00:42:20;;;;;;;23.83;15.63;;;10.40;92.60;;;;;;5024438;28;20476;-73
2021/05/30 00:44:46;;;;;;;21.80;15.68;;;10.40;92.70;;;;;;5011072;28;20551;-72
2021/05/30 00:47:12;;;;;;;22.70;15.57;;;10.30;92.70;;;;;;5032970;28;20029;-72
2021/05/30 00:49:37;;;;;;;26.35;17.75;;;10.30;92.80;;;;;;5007909;28;20098;-73
2021/05/30 00:52:07;;;;;;;22.98;16.05;;;10.30;92.80;;;;;;5012040;28;20404;-73
2021/05/30 00:54:36;;;;;;;21.80;15.77;;;10.30;92.80;;;;;;5035710;28;20033;-72
2021/05/30 00:57:05;;;;;;;21.67;14.80;;;10.30;92.60;;;;;;5019890;28;20301;-73
2021/05/30 00:59:31;;;;;;;20.30;15.05;;;10.20;92.50;;;;;;5026311;28;20088;-72
2021/05/30 01:01:57;;;;;;;19.40;14.27;;;10.20;92.50;;;;;;5027632;28;20037;-73
2021/05/30 01:04:24;;;;;;;20.17;13.88;;;10.20;92.50;;;;;;5028728;28;20046;-72
2021/05/30 01:06:54;;;;;;;20.90;16.08;;;10.20;92.50;;;;;;5017578;28;20041;-72
2021/05/30 01:09:20;;;;;;;21.45;15.55;;;10.20;92.40;;;;;;5010947;28;20038;-72
2021/05/30 01:11:47;;;;;;;16.60;14.30;;;10.20;92.60;;;;;;5015406;28;20045;-72
2021/05/30 01:14:13;;;;;;;20.35;15.10;;;10.20;92.50;;;;;;5027043;28;20059;-72
2021/05/30 01:16:40;;;;;;;21.63;16.05;;;10.20;92.50;;;;;;5015481;28;20037;-73
2021/05/30 01:19:09;;;;;;;22.20;15.95;;;10.20;92.50;;;;;;5021412;28;20044;-72
2021/05/30 01:21:35;;;;;;;24.48;17.55;;;10.20;92.60;;;;;;5020664;28;20119;-73
2021/05/30 01:24:01;;;;;;;21.27;15.75;;;10.20;92.50;;;;;;5035945;28;20611;-73
2021/05/30 01:26:27;;;;;;;26.83;17.40;;;10.20;92.50;;;;;;5004923;28;20130;-72
2021/05/30 01:28:54;;;;;;;26.08;16.95;;;10.10;92.60;;;;;;5035392;28;20037;-72
2021/05/30 01:31:20;;;;;;;22.90;15.95;;;10.10;92.60;;;;;;5015210;28;20041;-72
2021/05/30 01:33:47;;;;;;;25.30;16.83;;;10.10;92.70;;;;;;5020923;28;20065;-73
2021/05/30 01:36:14;;;;;;;27.30;18.30;;;10.10;92.70;;;;;;5019291;28;20496;-72
2021/05/30 01:38:43;;;;;;;21.05;15.88;;;10.10;92.70;;;;;;5028663;28;20156;-72
2021/05/30 01:41:09;;;;;;;27.02;17.40;;;10.00;92.70;;;;;;4989354;28;20191;-72
2021/05/30 01:43:36;;;;;;;25.40;16.50;;;10.00;92.90;;;;;;5026742;28;20116;-72
2021/05/30 01:46:02;;;;;;;25.13;17.70;;;10.00;93.00;;;;;;5007477;28;20647;-72
2021/05/30 01:48:28;;;;;;;25.80;17.33;;;9.90;93.00;;;;;;5027839;28;20037;-72
2021/05/30 01:50:57;;;;;;;22.45;15.05;;;9.90;93.10;;;;;;5008767;28;20037;-72
2021/05/30 01:53:34;;;;;;;22.42;16.60;;;9.90;93.10;;;;;;5020664;28;20034;-72
2021/05/30 01:58:26;;;;;;;21.13;15.75;;;9.90;93.20;;;;;;5022211;28;20501;-72
2021/05/30 02:00:52;;;;;;;25.95;16.63;;;9.90;93.30;;;;;;5005877;28;20037;-72
2021/05/30 02:03:19;;;;;;;21.98;16.40;;;9.80;93.40;;;;;;5024418;28;20045;-72
2021/05/30 02:05:49;;;;;;;25.30;15.82;;;9.80;93.60;;;;;;5002961;28;20103;-72
2021/05/30 02:08:15;;;;;;;20.35;15.20;;;9.80;93.70;;;;;;5024436;28;20115;-72
2021/05/30 02:10:41;;;;;;;22.63;14.23;;;9.80;93.70;;;;;;5007408;28;20046;-72
2021/05/30 02:13:08;;;;;;;18.92;13.52;;;9.70;93.70;;;;;;4966560;28;20037;-73
2021/05/30 02:15:35;;;;;;;23.25;15.57;;;9.70;93.80;;;;;;4990846;28;20137;-72
2021/05/30 02:18:01;;;;;;;21.88;16.15;;;9.60;93.80;;;;;;5007419;28;20038;-72
2021/05/30 02:20:39;;;;;;;26.45;17.75;;;9.60;94.00;;;;;;4963893;28;20038;-72
2021/05/30 02:23:12;;;;;;;22.92;16.40;;;9.60;94.00;;;;;;4974964;28;20157;-72
2021/05/30 02:25:40;;;;;;;22.20;15.90;;;9.50;94.00;;;;;;4989268;28;20030;-72
2021/05/30 02:28:06;;;;;;;21.55;15.63;;;9.50;94.00;;;;;;4990544;28;20496;-73
2021/05/30 02:30:32;;;;;;;22.70;14.30;;;9.50;94.00;;;;;;4994820;28;20041;-73
2021/05/30 02:33:03;;;;;;;22.52;16.67;;;9.50;94.00;;;;;;4991079;28;20045;-74
2021/05/30 02:35:29;;;;;;;23.80;16.38;;;9.40;94.10;;;;;;5024577;28;20048;-73
2021/05/30 02:37:55;;;;;;;27.15;15.73;;;9.30;94.00;;;;;;5014835;28;20045;-74
2021/05/30 02:40:26;;;;;;;;;;;9.30;94.00;;;;;;4991143;28;20504;-73
2021/05/30 02:42:54;;;;;;;22.98;14.38;;;9.10;94.00;;;;;;5009225;28;20364;-73
2021/05/30 02:45:20;;;;;;;25.27;14.93;;;9.10;93.90;;;;;;5015825;28;20095;-73
2021/05/30 02:47:47;;;;;;;22.48;14.77;;;9.00;94.10;;;;;;4999110;28;20507;-73
2021/05/30 02:50:13;;;;;;;20.63;13.93;;;9.00;94.30;;;;;;5017462;28;20034;-73
2021/05/30 02:52:40;;;;;;;22.90;16.00;;;8.90;94.40;;;;;;5004816;28;20560;-73
2021/05/30 02:55:06;;;;;;;16.67;12.95;;;8.80;94.40;;;;;;5013744;28;20095;-73
2021/05/30 02:57:32;;;;;;;18.80;13.77;;;8.80;94.30;;;;;;5017792;28;20065;-73
2021/05/30 02:59:58;;;;;;;21.30;13.90;;;8.70;94.50;;;;;;5010899;28;20073;-73
2021/05/30 03:02:24;;;;;;;17.15;13.35;;;8.70;94.70;;;;;;4980262;28;20459;-73
2021/05/30 03:04:50;;;;;;;23.33;14.88;;;8.60;94.80;;;;;;5026164;28;20554;-73
2021/05/30 03:07:16;;;;;;;21.50;14.25;;;8.60;94.70;;;;;;4991006;28;20038;-72
2021/05/30 03:09:42;;;;;;;20.95;13.30;;;8.50;94.60;;;;;;5013304;28;20489;-73
2021/05/30 03:12:08;;;;;;;21.08;13.77;;;8.50;94.60;;;;;;5000408;28;20050;-73
2021/05/30 03:14:34;;;;;;;18.77;12.80;;;8.50;94.70;;;;;;5004421;28;20684;-72
2021/05/30 03:17:00;;;;;;;21.30;13.00;;;8.40;94.70;;;;;;4990594;28;20121;-73
2021/05/30 03:19:26;;;;;;;21.93;15.03;;;8.40;94.80;;;;;;4993795;28;20038;-73
2021/05/30 03:21:51;;;;;;;18.52;13.68;;;8.40;95.00;;;;;;4974210;28;20038;-72
2021/05/30 03:24:17;;;;;;;22.58;13.63;;;8.40;95.00;;;;;;4976968;28;20046;-72
2021/05/30 03:26:44;;;;;;;21.23;13.23;;;8.30;95.00;;;;;;4990953;28;20041;-73
2021/05/30 03:29:10;;;;;;;20.90;13.57;;;8.30;95.00;;;;;;5007737;28;20149;-73
2021/05/30 03:31:36;;;;;;;17.67;12.75;;;8.20;94.80;;;;;;4994857;28;20037;-73
2021/05/30 03:34:02;;;;;;;16.20;12.63;;;8.30;95.00;;;;;;5008200;28;20077;-73
2021/05/30 03:36:35;;;;;;;20.38;13.82;;;8.20;94.90;;;;;;5008617;28;20608;-72
2021/05/30 03:39:03;;;;;;;16.80;12.40;;;8.20;95.20;;;;;;4999422;28;20497;-72
2021/05/30 03:41:41;;;;;;;22.58;14.60;;;8.20;95.50;;;;;;5012021;28;20115;-72
2021/05/30 03:44:08;;;;;;;23.65;13.75;;;8.10;95.30;;;;;;4981444;28;20125;-72
2021/05/30 03:46:35;;;;;;;19.88;13.00;;;8.10;95.50;;;;;;4988590;28;20041;-72
2021/05/30 03:49:02;;;;;;;18.10;12.38;;;8.10;95.30;;;;;;4990316;28;20042;-72
2021/05/30 03:51:31;;;;;;;16.42;12.05;;;8.00;95.50;;;;;;4990944;28;20135;-72
2021/05/30 03:53:56;;;;;;;18.90;13.32;;;8.00;95.60;;;;;;4987292;28;20045;-72
2021/05/30 03:56:23;;;;;;;18.65;13.13;;;8.00;95.60;;;;;;4990770;28;20041;-72
2021/05/30 03:58:50;;;;;;;16.25;11.85;;;8.00;95.40;;;;;;5023183;28;20120;-72
2021/05/30 04:01:16;;;;;;;23.17;14.10;;;8.00;95.70;;;;;;5024266;28;20106;-72
2021/05/30 04:03:42;;;;;;;22.83;15.13;;;8.00;95.50;;;;;;4988532;28;20089;-72
2021/05/30 04:06:08;;;;;;;16.98;12.85;;;7.90;95.40;;;;;;5026407;28;20042;-72
2021/05/30 04:08:37;;;;;;;17.73;11.82;;;7.90;95.40;;;;;;4997309;28;20116;-72
2021/05/30 04:11:03;;;;;;;17.63;12.37;;;7.90;95.30;;;;;;4983137;28;20125;-73
2021/05/30 04:13:29;;;;;;;16.17;12.45;;;7.90;95.60;;;;;;5010144;28;20184;-73
2021/05/30 04:15:55;;;;;;;27.90;15.70;;;7.90;95.50;;;;;;4989075;28;20125;-73
2021/05/30 04:18:22;;;;;;;23.37;14.33;;;8.00;95.50;;;;;;4996628;28;20505;-73
2021/05/30 04:20:48;;;;;;;22.23;14.43;;;7.90;95.40;;;;;;5004343;28;20432;-73
2021/05/30 04:23:15;;;;;;;18.25;12.98;;;7.90;95.40;;;;;;5007278;28;20645;-73
2021/05/30 04:25:41;;;;;;;20.88;14.00;;;8.00;95.50;;;;;;4968836;28;20485;-73
2021/05/30 04:28:07;;;;;;;18.70;12.05;;;8.00;95.50;;;;;;5018165;28;20056;-73
2021/05/30 04:30:33;;;;;;;21.17;14.38;;;8.10;95.60;;;;;;4992082;28;20482;-73
2021/05/30 04:32:59;;;;;;;24.17;15.32;;;8.20;95.70;;;;;;5018364;28;20041;-73
2021/05/30 04:35:25;;;;;;;22.95;16.17;;;8.20;95.70;;;;;;5023854;28;20069;-73
2021/05/30 04:37:51;;;;;;;21.25;14.85;;;8.30;95.80;;;;;;4998293;28;20118;-72
2021/05/30 04:40:18;;;;;;;22.48;14.65;;;8.40;95.80;;;;;;4992775;28;20543;-73
2021/05/30 04:42:47;;;;;;;22.38;15.70;;;8.50;95.70;;;;;;5007804;28;20133;-73
2021/05/30 04:45:13;;;;;;;24.45;15.07;;;8.50;95.70;;;;;;5006747;28;20124;-72
2021/05/30 04:47:39;;;;;;;24.30;15.85;;;8.60;95.80;;;;;;5023323;28;20041;-73
2021/05/30 04:50:06;;;;;;;25.00;16.20;;;8.70;95.80;;;;;;5006441;28;20528;-73
2021/05/30 04:52:32;;;;;;;23.80;16.13;;;8.70;95.80;;;;;;5019910;28;20049;-73
2021/05/30 04:54:58;;;;;;;21.05;14.48;;;8.90;95.90;;;;;;4950866;28;20046;-73
2021/05/30 04:57:24;;;;;;;21.08;16.13;;;8.90;95.80;;;;;;4983314;28;20096;-71
2021/05/30 04:59:50;;;;;;;25.58;15.32;;;9.00;95.70;;;;;;4983082;28;20046;-72
2021/05/30 05:02:16;;;;;;;27.00;17.05;;;9.00;95.60;;;;;;4985979;28;20493;-71
2021/05/30 05:04:41;;;;;;;26.35;16.63;;;9.10;95.60;;;;;;4985415;28;20125;-71
2021/05/30 05:07:08;;;;;;;24.23;15.88;;;9.20;95.60;;;;;;4985966;28;20503;-72
2021/05/30 05:09:34;;;;;;;26.90;15.73;;;9.30;95.60;;;;;;4986120;28;20093;-71
2021/05/30 05:12:00;;;;;;;24.15;15.45;;;9.40;95.50;;;;;;4991253;28;20092;-72
2021/05/30 05:14:26;;;;;;;29.75;17.40;;;9.40;95.40;;;;;;4994505;28;20076;-72
2021/05/30 05:16:52;;;;;;;28.13;17.42;;;9.50;95.40;;;;;;5034584;28;20068;-73
2021/05/30 05:19:18;;;;;;;26.23;16.40;;;9.60;95.30;;;;;;5002914;28;20049;-73
2021/05/30 05:21:45;;;;;;;27.27;15.98;;;9.60;95.30;;;;;;5002551;28;20120;-73
2021/05/30 05:24:14;;;;;;;26.80;16.25;;;9.70;95.30;;;;;;5006017;28;20116;-73
2021/05/30 05:26:39;;;;;;;26.85;17.05;;;9.70;95.20;;;;;;5002220;28;20057;-73
2021/05/30 05:29:05;;;;;;;28.00;17.70;;;9.80;95.10;;;;;;5008622;28;20069;-73
2021/05/30 05:31:31;;;;;;;27.02;16.52;;;9.90;95.20;;;;;;5034442;28;20036;-73
2021/05/30 05:33:57;;;;;;;24.63;16.70;;;9.90;95.10;;;;;;5016729;28;20045;-73
2021/05/30 05:36:23;;;;;;;30.13;17.08;;;10.00;95.00;;;;;;5025391;28;20060;-73
2021/05/30 05:38:51;;;;;;;29.08;17.08;;;10.00;94.90;;;;;;5026804;28;20139;-73
2021/05/30 05:41:17;;;;;;;28.65;18.10;;;10.00;94.70;;;;;;5009206;28;20038;-73
2021/05/30 05:43:47;;;;;;;27.67;17.77;;;10.00;94.70;;;;;;5021205;28;20041;-71
2021/05/30 05:46:13;;;;;;;28.75;18.00;;;10.10;94.60;;;;;;5010187;28;20253;-71
2021/05/30 05:48:38;;;;;;;24.10;16.83;;;10.10;94.70;;;;;;5000865;28;20045;-72
2021/05/30 05:51:05;;;;;;;24.05;16.23;;;10.20;94.80;;;;;;5005967;28;20763;-71
2021/05/30 05:53:31;;;;;;;27.38;17.63;;;10.30;94.80;;;;;;5040101;28;20118;-73
2021/05/30 05:55:56;;;;;;;27.80;18.02;;;10.40;94.60;;;;;;5006157;28;20053;-73
2021/05/30 05:58:22;;;;;;;22.00;16.35;;;10.50;94.50;;;;;;5005403;28;20053;-73
2021/05/30 06:00:48;;;;;;;31.83;18.83;;;10.50;94.50;;;;;;5025750;28;20046;-73
2021/05/30 06:03:14;;;;;;;27.75;18.15;;;10.50;94.40;;;;;;5041491;28;20064;-72
2021/05/30 06:05:40;;;;;;;25.67;16.83;;;10.50;94.30;;;;;;5035010;28;20110;-74
2021/05/30 06:08:06;;;;;;;28.58;17.63;;;10.50;94.40;;;;;;5037243;28;20103;-73
2021/05/30 06:10:33;;;;;;;28.38;17.13;;;10.60;94.50;;;;;;5035132;28;20109;-73
2021/05/30 06:13:02;;;;;;;24.88;16.65;;;10.70;94.50;;;;;;5032174;28;20499;-72
2021/05/30 06:15:29;;;;;;;25.38;17.88;;;10.70;94.20;;;;;;5029613;28;20044;-74
2021/05/30 06:17:59;;;;;;;26.40;16.40;;;10.70;94.10;;;;;;5024711;28;20518;-73
2021/05/30 06:20:26;;;;;;;30.25;18.25;;;10.80;94.00;;;;;;5012645;28;20040;-71
2021/05/30 06:22:55;;;;;;;23.65;17.42;;;10.80;94.10;;;;;;5017841;28;20075;-71
2021/05/30 06:25:22;;;;;;;21.95;15.70;;;10.90;94.00;;;;;;5037820;28;20033;-70
2021/05/30 06:27:49;;;;;;;22.13;14.95;;;11.00;93.60;;;;;;5040477;28;21507;-71
2021/05/30 06:30:16;;;;;;;27.55;17.55;;;11.00;93.50;;;;;;5004981;28;20152;-72
2021/05/30 06:32:49;;;;;;;22.40;17.15;;;11.10;93.40;;;;;;5012100;28;20527;-72
2021/05/30 06:35:15;;;;;;;18.38;14.75;;;11.20;93.60;;;;;;5022825;28;20393;-72
2021/05/30 06:37:41;;;;;;;27.17;15.98;;;11.30;93.50;;;;;;5011102;28;20041;-72
2021/05/30 06:40:07;;;;;;;23.65;16.30;;;11.50;93.50;;;;;;5042819;28;20040;-71
2021/05/30 06:42:33;;;;;;;21.05;16.60;;;11.60;93.20;;;;;;5020375;28;20051;-71
2021/05/30 06:45:04;;;;;;;23.45;17.02;;;11.70;93.00;;;;;;4995643;28;20442;-72
2021/05/30 06:47:30;;;;;;;23.67;16.73;;;11.70;93.10;;;;;;5010549;28;20034;-72
2021/05/30 06:49:56;;;;;;;26.42;17.00;;;11.80;92.80;;;;;;4992894;28;20045;-73
2021/05/30 06:52:22;;;;;;;23.73;16.58;;;11.90;92.60;;;;;;5009481;28;20426;-73
2021/05/30 06:54:48;;;;;;;22.30;16.83;;;11.90;92.40;;;;;;5012098;28;20034;-73
2021/05/30 06:57:14;;;;;;;24.52;16.50;;;12.00;92.40;;;;;;4976143;28;20041;-73
2021/05/30 06:59:40;;;;;;;21.08;15.10;;;12.10;92.40;;;;;;5026328;28;20488;-73
2021/05/30 07:02:07;;;;;;;23.20;16.65;;;12.20;92.40;;;;;;5008674;28;20044;-73
2021/05/30 07:04:33;;;;;;;20.92;16.23;;;12.30;92.20;;;;;;5029615;28;20099;-72
2021/05/30 07:06:59;;;;;;;24.80;17.20;;;12.40;92.10;;;;;;5012415;28;20268;-72
2021/05/30 07:09:25;;;;;;;24.48;18.45;;;12.50;92.00;;;;;;5008470;28;20040;-72
2021/05/30 07:11:51;;;;;;;22.92;16.20;;;12.60;91.10;;;;;;5019687;28;20044;-71
2021/05/30 07:14:17;;;;;;;26.20;16.88;;;12.70;91.50;;;;;;5009913;28;20518;-72
2021/05/30 07:16:43;;;;;;;22.38;16.75;;;12.80;91.20;;;;;;5014859;28;20029;-72
2021/05/30 07:19:09;;;;;;;27.35;17.63;;;12.90;91.20;;;;;;4993471;28;20033;-72
2021/05/30 07:21:34;;;;;;;23.23;16.13;;;13.10;91.20;;;;;;5015327;28;20574;-72
2021/05/30 07:24:00;;;;;;;26.88;16.80;;;13.20;91.10;;;;;;5042504;28;20095;-72
2021/05/30 07:26:26;;;;;;;20.73;15.82;;;13.30;91.10;;;;;;5010549;28;20176;-72
2021/05/30 07:28:53;;;;;;;23.17;16.25;;;13.50;90.90;;;;;;5030632;28;20049;-72
2021/05/30 07:31:22;;;;;;;20.75;15.55;;;13.60;90.50;;;;;;5005481;28;20044;-73
2021/05/30 07:33:48;;;;;;;20.45;15.30;;;13.80;90.30;;;;;;5019626;28;20083;-72
2021/05/30 07:36:15;;;;;;;23.13;15.80;;;13.90;90.20;;;;;;5023025;28;20504;-72
2021/05/30 07:38:40;;;;;;;18.45;14.48;;;13.90;89.80;;;;;;5006590;28;20616;-71
2021/05/30 07:41:07;;;;;;;22.88;16.65;;;14.00;89.50;;;;;;5020824;28;20041;-72
2021/05/30 07:43:33;;;;;;;23.75;16.98;;;14.10;89.00;;;;;;4995848;28;20041;-72
2021/05/30 07:45:59;;;;;;;23.73;16.63;;;14.10;88.40;;;;;;5043716;28;20057;-74
2021/05/30 07:48:25;;;;;;;20.60;15.77;;;14.30;88.40;;;;;;5020392;28;20076;-73
2021/05/30 07:50:53;;;;;;;20.13;14.88;;;14.30;88.20;;;;;;4993041;28;20049;-73
2021/05/30 07:53:19;;;;;;;20.13;15.20;;;14.40;88.40;;;;;;4991340;28;20049;-73
2021/05/30 07:55:45;;;;;;;24.40;17.05;;;14.50;88.20;;;;;;4992820;28;20036;-74
2021/05/30 07:58:11;;;;;;;18.63;14.98;;;14.70;88.00;;;;;;5021651;28;20053;-73
2021/05/30 08:00:38;;;;;;;21.17;15.90;;;14.90;88.00;;;;;;5032205;28;20055;-73
2021/05/30 08:03:04;;;;;;;19.88;14.30;;;15.10;88.00;;;;;;5038568;28;20033;-73
2021/05/30 08:05:30;;;;;;;19.92;15.15;;;15.20;84.20;;;;;;5008423;28;20049;-74
2021/05/30 08:07:56;;;;;;;18.25;14.10;;;15.30;84.90;;;;;;5031206;28;20047;-72
2021/05/30 08:10:26;;;;;;;18.88;14.48;;;15.30;85.10;;;;;;5040158;28;20036;-72
2021/05/30 08:12:53;;;;;;;19.27;15.63;;;15.40;84.50;;;;;;4997645;28;20560;-72
2021/05/30 08:15:19;;;;;;;18.70;15.25;;;15.40;84.60;;;;;;5005678;28;20046;-72
2021/05/30 08:17:46;;;;;;;18.85;14.77;;;15.60;84.20;;;;;;5009750;28;20045;-73
2021/05/30 08:20:23;;;;;;;17.85;14.60;;;15.80;83.30;;;;;;5003080;28;20042;-72
2021/05/30 08:22:49;;;;;;;16.40;14.55;;;15.90;83.30;;;;;;4998804;28;21390;-72
2021/05/30 08:25:17;;;;;;;18.23;13.02;;;15.90;82.10;;;;;;4986582;28;20096;-72
2021/05/30 08:27:43;;;;;;;18.02;12.82;;;16.00;82.00;;;;;;4982814;28;20046;-72
2021/05/30 08:30:11;;;;;;;18.98;13.75;;;16.10;82.00;;;;;;4985786;28;20034;-72
2021/05/30 08:32:38;;;;;;;18.95;13.23;;;16.20;81.70;;;;;;4982119;28;20034;-73
2021/05/30 08:35:05;;;;;;;16.27;14.57;;;16.30;80.80;;;;;;4985568;28;20042;-73
2021/05/30 08:37:31;;;;;;;16.50;14.68;;;16.40;82.20;;;;;;4984953;28;20046;-73
2021/05/30 08:40:00;;;;;;;23.52;16.08;;;16.60;81.50;;;;;;5007825;28;20068;-73
2021/05/30 08:42:29;;;;;;;20.75;15.63;;;16.70;80.00;;;;;;5003270;28;20531;-73
2021/05/30 08:45:05;;;;;;;21.88;16.08;;;16.80;79.50;;;;;;5097188;27;20441;-75
2021/05/30 08:47:32;;;;;;;17.88;15.43;;;16.90;79.90;;;;;;5075229;28;20448;-74
2021/05/30 08:49:58;;;;;;;19.58;15.30;;;17.00;79.30;;;;;;5076363;28;20490;-75
2021/05/30 08:52:24;;;;;;;20.52;14.35;;;17.10;80.20;;;;;;5077509;28;20093;-73
2021/05/30 08:54:50;;;;;;;14.90;13.00;;;17.30;79.90;;;;;;5063078;28;20063;-75
2021/05/30 08:57:16;;;;;;;19.77;13.43;;;17.20;78.40;;;;;;5071269;28;20033;-74
2021/05/30 09:00:04;;;;;;;16.48;13.48;;;17.30;78.00;;;;;;5071721;28;20040;-75
2021/05/30 09:02:30;;;;;;;16.10;13.43;;;17.30;77.00;;;;;;5077072;28;20054;-74
2021/05/30 09:05:00;;;;;;;16.88;13.38;;;17.30;77.30;;;;;;5080747;28;20468;-74
2021/05/30 09:07:38;;;;;;;16.48;13.25;;;17.40;78.50;;;;;;5072888;28;20527;-74
2021/05/30 09:10:07;;;;;;;17.67;13.57;;;17.50;76.10;;;;;;5076192;28;20040;-74
2021/05/30 09:12:40;;;;;;;16.85;12.23;;;17.60;75.80;;;;;;5076401;28;20086;-74
2021/05/30 09:15:51;;;;;;;21.85;12.65;;;17.70;76.50;;;;;;5059830;28;20036;-73
2021/05/30 09:18:17;;;;;;;18.25;12.52;;;17.80;75.80;;;;;;5078069;28;20441;-73
2021/05/30 09:21:03;;;;;;;15.27;11.43;;;18.00;75.50;;;;;;5080999;28;20043;-73
2021/05/30 09:23:37;;;;;;;15.88;12.52;;;18.00;73.10;;;;;;5069549;28;20037;-74
2021/05/30 09:26:14;;;;;;;16.60;12.35;;;18.10;75.00;;;;;;5070186;28;20424;-73
2021/05/30 09:29:00;;;;;;;14.55;11.40;;;18.10;74.30;;;;;;5072832;28;20499;-73
2021/05/30 09:31:26;;;;;;;14.88;11.23;;;18.20;75.50;;;;;;5085294;28;20048;-74
2021/05/30 09:33:54;;;;;;;13.65;10.23;;;18.40;73.50;;;;;;5070326;28;20106;-73
2021/05/30 09:36:21;;;;;;;15.27;11.50;;;18.60;72.30;;;;;;5069096;28;20032;-73
2021/05/30 09:38:47;;;;;;;13.73;9.13;;;18.60;70.60;;;;;;5072779;28;20221;-75
2021/05/30 09:41:16;;;;;;;12.20;10.73;;;18.60;72.30;;;;;;5077772;28;20066;-74
2021/05/30 09:43:50;;;;;;;14.13;10.82;;;18.80;71.60;;;;;;5073885;28;20056;-75
2021/05/30 09:46:18;;;;;;;15.27;11.20;;;18.90;74.30;;;;;;5087895;28;20107;-75
2021/05/30 09:48:51;;;;;;;14.13;10.90;;;19.00;72.60;;;;;;5077837;28;20179;-74
2021/05/30 09:51:26;;;;;;;13.65;11.02;;;19.00;71.70;;;;;;5058493;28;20044;-74
2021/05/30 09:53:54;;;;;;;15.63;11.13;;;19.10;71.60;;;;;;5080494;28;20123;-75
2021/05/30 09:56:39;;;;;;;13.10;10.52;;;19.30;71.70;;;;;;5063249;28;20124;-74
2021/05/30 09:59:29;;;;;;;13.02;10.02;;;19.30;70.60;;;;;;5061341;28;20036;-74
2021/05/30 10:01:56;;;;;;;13.40;9.93;;;19.30;71.10;;;;;;5063222;28;20051;-75
2021/05/30 10:04:23;;;;;;;12.15;10.43;;;19.30;69.60;;;;;;5068831;28;20036;-75
2021/05/30 10:06:49;;;;;;;13.98;9.73;;;19.30;71.20;;;;;;5055421;28;20040;-75
2021/05/30 10:09:17;;;;;;;13.63;8.95;;;19.30;66.60;;;;;;5058996;28;20033;-75
2021/05/30 10:11:43;;;;;;;11.75;8.88;;;19.40;67.80;;;;;;5055913;28;20116;-75
2021/05/30 10:14:09;;;;;;;14.15;9.25;;;19.40;65.40;;;;;;5051708;28;20043;-75
2021/05/30 10:16:36;;;;;;;13.98;10.13;;;19.40;67.00;;;;;;5057698;28;20380;-75
2021/05/30 10:19:23;;;;;;;14.88;10.40;;;19.50;66.60;;;;;;5061843;28;20127;-75
2021/05/30 10:21:59;;;;;;;12.05;9.13;;;19.60;67.70;;;;;;5057040;28;20044;-75
2021/05/30 10:24:30;;;;;;;12.38;9.98;;;19.80;67.40;;;;;;5057904;28;20472;-74
2021/05/30 10:27:19;;;;;;;12.05;9.82;;;19.80;66.30;;;;;;5060889;28;20067;-75
2021/05/30 10:30:07;;;;;;;11.60;8.05;;;19.90;67.90;;;;;;5066092;28;20037;-75
2021/05/30 10:32:34;;;;;;;10.60;7.03;;;20.00;67.70;;;;;;5058157;28;20290;-75
2021/05/30 10:35:09;;;;;;;10.18;8.73;;;20.10;64.50;;;;;;5062390;28;20115;-75
2021/05/30 10:37:47;;;;;;;12.95;8.57;;;20.10;60.40;;;;;;5057087;28;20495;-75
2021/05/30 10:40:28;;;;;;;12.55;9.23;;;20.00;62.60;;;;;;5057861;28;20112;-75
2021/05/30 10:43:09;;;;;;;9.13;7.35;;;20.10;60.30;;;;;;5062706;28;20044;-74
2021/05/30 10:45:55;;;;;;;11.35;7.40;;;20.30;61.10;;;;;;5055731;28;20053;-75
2021/05/30 10:48:21;;;;;;;8.75;6.85;;;20.20;59.50;;;;;;5065925;28;20036;-75
2021/05/30 10:51:13;;;;;;;9.43;5.93;;;20.20;60.70;;;;;;5060917;28;20043;-75
2021/05/30 10:53:43;;;;;;;11.95;7.40;;;20.30;59.50;;;;;;5063121;28;20033;-75
2021/05/30 10:56:15;;;;;;;;;;;20.40;61.60;;;;;;5063238;28;20043;-76
2021/05/30 10:59:05;;;;;;;11.30;7.07;;;20.50;58.80;;;;;;5059122;28;20027;-77
2021/05/30 11:01:33;;;;;;;9.23;6.85;;;20.60;57.20;;;;;;5056841;28;20087;-75
2021/05/30 11:04:31;;;;;;;10.95;6.88;;;20.60;60.00;;;;;;5061889;28;20029;-76
2021/05/30 11:07:18;;;;;;;8.13;5.82;;;20.70;61.90;;;;;;5060701;28;20053;-76
2021/05/30 11:09:50;;;;;;;6.88;5.40;;;20.90;57.70;;;;;;5062468;28;20037;-74
2021/05/30 11:12:20;;;;;;;7.95;5.93;;;21.00;56.90;;;;;;5062837;28;20032;-74
2021/05/30 11:15:11;;;;;;;7.90;5.05;;;21.00;58.00;;;;;;5041097;28;20131;-74
2021/05/30 11:17:45;;;;;;;7.35;4.97;;;21.10;56.90;;;;;;5061834;28;20568;-75
2021/05/30 11:20:12;;;;;;;10.13;5.30;;;21.40;56.80;;;;;;5055740;28;20058;-74
2021/05/30 11:22:42;;;;;;;8.60;5.22;;;21.50;56.70;;;;;;5064632;28;20037;-74
2021/05/30 11:25:09;;;;;;;9.23;6.07;;;21.60;57.50;;;;;;5059381;28;20296;-75
2021/05/30 11:28:06;;;;;;;8.90;5.82;;;21.70;57.60;;;;;;5058067;28;20567;-74
2021/05/30 11:30:44;;;;;;;10.65;5.78;;;21.70;55.90;;;;;;5060322;28;20041;-74
2021/05/30 11:33:13;;;;;;;10.55;6.13;;;21.50;54.50;;;;;;5058286;28;20071;-74
2021/05/30 11:35:39;;;;;;;11.02;6.82;;;21.50;56.80;;;;;;5059564;28;20033;-74
2021/05/30 11:38:05;;;;;;;10.63;6.43;;;21.50;59.10;;;;;;5065266;28;20102;-75
2021/05/30 11:40:35;;;;;;;10.73;6.00;;;21.50;58.10;;;;;;5057293;28;20471;-75
2021/05/30 11:43:12;;;;;;;10.77;6.53;;;21.50;60.10;;;;;;5091665;28;20079;-74
2021/05/30 11:45:40;;;;;;;11.00;6.28;;;21.50;57.70;;;;;;5053467;28;20395;-75
2021/05/30 11:48:09;;;;;;;10.65;6.35;;;21.50;61.80;;;;;;5062994;28;20048;-74
2021/05/30 11:50:38;;;;;;;9.38;6.05;;;21.70;63.30;;;;;;5059784;28;20250;-75
2021/05/30 11:53:23;;;;;;;11.27;6.10;;;21.90;62.00;;;;;;5063323;28;20065;-74
2021/05/30 11:55:49;;;;;;;7.22;6.05;;;22.00;58.70;;;;;;5056700;28;20491;-74
2021/05/30 11:58:15;;;;;;;13.63;6.85;;;22.10;55.80;;;;;;5057027;28;20543;-74
2021/05/30 12:00:43;;;;;;;12.02;6.03;;;22.00;55.40;;;;;;5028575;28;20494;-74
2021/05/30 12:03:11;;;;;;;11.77;6.90;;;22.00;56.50;;;;;;5055736;28;20466;-74
2021/05/30 12:05:37;;;;;;;9.95;6.18;;;22.00;55.30;;;;;;5070530;28;20048;-75
2021/05/30 12:08:32;;;;;;;9.35;5.68;;;22.00;56.30;;;;;;5076267;28;20050;-74
2021/05/30 12:11:01;;;;;;;10.23;6.38;;;22.00;54.30;;;;;;5032418;28;20049;-75
2021/05/30 12:13:35;;;;;;;11.10;6.75;;;22.00;54.10;;;;;;5058933;28;20040;-75
2021/05/30 12:16:16;;;;;;;8.75;6.55;;;21.80;57.70;;;;;;5064526;28;20145;-74
2021/05/30 12:18:54;;;;;;;8.98;6.65;;;21.80;53.90;;;;;;5056252;28;20583;-74
2021/05/30 12:21:23;;;;;;;7.45;6.10;;;21.70;56.10;;;;;;5061038;28;20037;-75
2021/05/30 12:23:50;;;;;;;11.05;6.60;;;21.80;56.00;;;;;;5058597;28;20040;-74
2021/05/30 12:26:16;;;;;;;9.38;5.72;;;21.90;53.80;;;;;;5064625;28;20032;-74
2021/05/30 12:28:43;;;;;;;11.82;6.32;;;21.90;53.00;;;;;;5065812;28;20036;-74
2021/05/30 12:31:11;;;;;;;9.68;5.80;;;21.80;54.90;;;;;;5057205;28;20033;-74
2021/05/30 12:33:55;;;;;;;9.52;5.95;;;21.90;54.60;;;;;;5063629;28;20040;-75
2021/05/30 12:36:44;;;;;;;10.00;5.75;;;22.00;56.90;;;;;;5064774;28;20108;-75
2021/05/30 12:39:24;;;;;;;8.48;6.18;;;22.20;57.50;;;;;;5062443;28;20041;-75
2021/05/30 12:42:03;;;;;;;;;;;22.30;53.30;;;;;;5058383;28;20376;-76
2021/05/30 12:44:41;;;;;;;9.85;5.85;;;22.30;54.90;;;;;;5061793;28;19924;-76